createdAt,value
2019-05-10T00:00:14.879Z,39.93
2019-05-10T00:03:01.336Z,34.23
2019-05-10T00:05:48.148Z,45.80
2019-05-10T00:08:35.264Z,43.00
2019-05-10T00:11:18.695Z,34.03
2019-05-10T00:13:52.144Z,39.57
2019-05-10T00:16:20.621Z,42.37
2019-05-10T00:18:49.141Z,40.90
2019-05-10T00:21:18.583Z,34.87
2019-05-10T00:23:47.321Z,38.00
2019-05-10T00:26:16.647Z,34.20
2019-05-10T00:28:45.281Z,42.27
2019-05-10T00:31:13.949Z,38.30
2019-05-10T00:33:42.546Z,49.07
2019-05-10T00:36:10.939Z,40.87
2019-05-10T00:38:39.405Z,53.13
2019-05-10T00:41:07.741Z,48.57
2019-05-10T00:43:36.078Z,43.73
2019-05-10T00:46:04.513Z,41.00
2019-05-10T00:48:32.934Z,44.50
2019-05-10T00:51:01.182Z,42.30
2019-05-10T00:53:29.656Z,41.90
2019-05-10T00:55:58.000Z,45.83
2019-05-10T00:58:26.799Z,36.57
2019-05-10T01:00:55.733Z,36.90
2019-05-10T01:03:24.478Z,37.17
2019-05-10T01:05:53.165Z,33.17
2019-05-10T01:08:21.801Z,39.43
2019-05-10T01:10:50.730Z,31.83
2019-05-10T01:13:19.409Z,37.13
2019-05-10T01:15:47.888Z,40.80
2019-05-10T01:18:16.415Z,40.53
2019-05-10T01:20:44.964Z,38.20
2019-05-10T01:23:13.753Z,39.50
2019-05-10T01:25:42.654Z,35.27
2019-05-10T01:28:11.277Z,31.63
2019-05-10T01:30:40.274Z,29.60
2019-05-10T01:33:09.035Z,33.20
2019-05-10T01:35:37.681Z,27.50
2019-05-10T01:38:06.890Z,28.37
2019-05-10T01:40:35.213Z,30.43
2019-05-10T01:43:03.698Z,36.07
2019-05-10T01:45:32.289Z,35.27
2019-05-10T01:48:00.710Z,32.23
2019-05-10T01:50:29.359Z,28.87
2019-05-10T01:52:57.769Z,37.10
2019-05-10T01:55:26.882Z,36.13
2019-05-10T01:57:56.183Z,34.93
2019-05-10T02:00:24.785Z,34.97
2019-05-10T02:02:53.501Z,37.20
2019-05-10T02:05:46.521Z,35.03
2019-05-10T02:08:15.445Z,31.83
2019-05-10T02:10:43.838Z,32.33
2019-05-10T02:13:12.817Z,31.27
2019-05-10T02:15:41.137Z,27.43
2019-05-10T02:18:09.519Z,31.97
2019-05-10T02:20:37.986Z,34.90
2019-05-10T02:23:07.005Z,28.33
2019-05-10T02:25:35.949Z,26.13
2019-05-10T02:28:04.978Z,30.53
2019-05-10T02:30:33.679Z,26.27
2019-05-10T02:33:02.261Z,29.87
2019-05-10T02:35:31.010Z,24.67
2019-05-10T02:37:59.500Z,28.97
2019-05-10T02:40:28.114Z,34.80
2019-05-10T02:42:57.107Z,40.67
2019-05-10T02:45:25.942Z,30.40
2019-05-10T02:47:54.362Z,36.70
2019-05-10T02:50:22.751Z,28.57
2019-05-10T02:52:51.295Z,30.50
2019-05-10T02:55:20.182Z,32.45
2019-05-10T02:57:48.973Z,33.70
2019-05-10T03:00:17.669Z,34.97
2019-05-10T03:02:46.900Z,28.73
2019-05-10T03:05:15.511Z,28.00
2019-05-10T03:07:44.741Z,36.10
2019-05-10T03:10:14.589Z,35.93
2019-05-10T03:12:43.070Z,30.87
2019-05-10T03:15:12.862Z,33.13
2019-05-10T03:17:42.104Z,34.00
2019-05-10T03:20:11.094Z,34.97
2019-05-10T03:22:43.365Z,31.93
2019-05-10T03:25:12.199Z,35.47
2019-05-10T03:27:41.394Z,36.90
2019-05-10T03:30:11.086Z,31.17
2019-05-10T03:32:40.057Z,29.77
2019-05-10T03:35:08.967Z,27.93
2019-05-10T03:37:37.378Z,31.93
2019-05-10T03:40:06.858Z,41.02
2019-05-10T03:42:36.368Z,39.53
2019-05-10T03:45:05.800Z,37.43
2019-05-10T03:47:34.224Z,33.27
2019-05-10T03:50:03.300Z,37.57
2019-05-10T03:52:32.186Z,37.83
2019-05-10T03:55:00.719Z,35.37
2019-05-10T03:57:29.302Z,31.83
2019-05-10T03:59:58.009Z,41.83
2019-05-10T04:02:26.778Z,34.47
2019-05-10T04:04:55.076Z,39.03
2019-05-10T04:07:23.942Z,37.70
2019-05-10T04:09:52.367Z,33.90
2019-05-10T04:12:20.911Z,34.67
2019-05-10T04:14:49.118Z,35.40
2019-05-10T04:17:17.575Z,35.13
2019-05-10T04:19:45.927Z,41.40
2019-05-10T04:22:14.659Z,33.63
2019-05-10T04:24:44.418Z,42.00
2019-05-10T04:27:30.589Z,41.97
2019-05-10T04:29:43.362Z,35.57
2019-05-10T04:32:12.129Z,35.67
2019-05-10T04:34:40.430Z,55.53
2019-05-10T04:37:09.205Z,68.90
2019-05-10T04:39:37.490Z,61.90
2019-05-10T04:42:07.239Z,50.90
2019-05-10T04:44:35.767Z,68.90
2019-05-10T04:47:04.451Z,55.93
2019-05-10T04:49:32.937Z,48.10
2019-05-10T04:52:01.333Z,46.10
2019-05-10T04:54:30.361Z,47.17
2019-05-10T04:57:00.199Z,43.73
2019-05-10T04:59:29.622Z,43.50
2019-05-10T05:01:58.570Z,38.20
2019-05-10T05:04:27.190Z,44.20
2019-05-10T05:06:55.750Z,41.90
2019-05-10T05:09:24.262Z,51.43
2019-05-10T05:11:53.253Z,43.83
2019-05-10T05:14:21.955Z,45.07
2019-05-10T05:16:50.436Z,45.70
2019-05-10T05:19:18.928Z,49.03
2019-05-10T05:21:47.426Z,42.63
2019-05-10T05:24:16.918Z,46.43
2019-05-10T05:26:46.657Z,50.87
2019-05-10T05:29:15.193Z,39.10
2019-05-10T05:31:43.673Z,42.70
2019-05-10T05:34:12.054Z,38.30
2019-05-10T05:36:41.085Z,36.20
2019-05-10T05:39:09.418Z,37.30
2019-05-10T05:41:48.179Z,28.03
2019-05-10T05:44:09.199Z,23.20
2019-05-10T05:46:37.831Z,29.53
2019-05-10T05:49:06.310Z,28.70
2019-05-10T05:51:34.597Z,30.90
2019-05-10T05:54:04.081Z,23.87
2019-05-10T05:56:33.290Z,30.10
2019-05-10T05:59:01.899Z,25.27
2019-05-10T06:01:30.333Z,24.70
2019-05-10T06:04:00.327Z,24.37
2019-05-10T06:06:29.545Z,28.30
2019-05-10T06:08:59.756Z,24.07
2019-05-10T06:11:29.916Z,21.40
2019-05-10T06:14:03.609Z,28.60
2019-05-10T06:16:29.337Z,22.47
2019-05-10T06:18:57.888Z,22.80
2019-05-10T06:21:26.798Z,25.40
2019-05-10T06:23:55.135Z,28.53
2019-05-10T06:26:28.396Z,21.17
2019-05-10T06:29:04.237Z,25.33
2019-05-10T06:31:23.682Z,25.77
2019-05-10T06:33:52.141Z,25.80
2019-05-10T06:36:20.514Z,28.23
2019-05-10T06:38:49.303Z,25.03
2019-05-10T06:41:19.273Z,24.57
2019-05-10T06:43:51.363Z,24.97
2019-05-10T06:46:17.990Z,20.23
2019-05-10T06:48:46.226Z,27.07
2019-05-10T06:51:16.674Z,21.17
2019-05-10T06:53:52.275Z,30.13
2019-05-10T06:56:15.938Z,27.57
2019-05-10T06:58:44.845Z,28.60
2019-05-10T07:01:16.311Z,22.23
2019-05-10T07:03:46.294Z,24.63
2019-05-10T07:06:15.133Z,24.00
2019-05-10T07:08:45.934Z,27.07
2019-05-10T07:11:14.512Z,19.53
2019-05-10T07:13:47.262Z,21.73
2019-05-10T07:16:15.052Z,19.73
2019-05-10T07:18:45.587Z,23.27
2019-05-10T07:21:15.030Z,22.80
2019-05-10T07:23:47.580Z,30.03
2019-05-10T07:26:17.630Z,26.47
2019-05-10T07:28:46.346Z,23.83
2019-05-10T07:31:14.791Z,23.83
2019-05-10T07:33:43.105Z,20.63
2019-05-10T07:36:15.169Z,23.00
2019-05-10T07:38:42.297Z,23.07
2019-05-10T07:41:10.661Z,22.87
2019-05-10T07:43:39.711Z,24.80
2019-05-10T07:46:09.053Z,16.13
2019-05-10T07:48:41.111Z,18.73
2019-05-10T07:51:08.532Z,19.27
2019-05-10T07:53:37.274Z,16.90
2019-05-10T07:56:07.755Z,27.13
2019-05-10T07:58:38.322Z,20.37
2019-05-10T08:01:07.270Z,22.63
2019-05-10T08:03:44.173Z,19.77
2019-05-10T08:06:08.244Z,19.87
2019-05-10T08:08:38.873Z,19.97
2019-05-10T08:11:08.593Z,19.93
2019-05-10T08:13:39.184Z,23.67
2019-05-10T08:16:14.418Z,21.30
2019-05-10T08:18:44.318Z,16.83
2019-05-10T08:21:21.699Z,29.80
2019-05-10T08:23:44.282Z,23.57
2019-05-10T08:26:19.845Z,18.98
2019-05-10T08:28:44.664Z,29.75
2019-05-10T08:31:13.627Z,19.65
2019-05-10T08:33:44.252Z,16.80
2019-05-10T08:36:12.259Z,27.75
2019-05-10T08:38:46.155Z,17.17
2019-05-10T08:41:14.724Z,14.07
2019-05-10T08:43:43.025Z,13.98
2019-05-10T08:46:12.495Z,15.40
2019-05-10T08:48:46.768Z,13.10
2019-05-10T08:51:12.599Z,11.50
2019-05-10T08:53:42.146Z,19.02
2019-05-10T08:56:15.938Z,12.15
2019-05-10T08:58:42.240Z,17.25
2019-05-10T09:01:24.021Z,11.73
2019-05-10T09:03:42.062Z,14.13
2019-05-10T09:06:14.279Z,17.05
2019-05-10T09:08:42.989Z,13.40
2019-05-10T09:11:11.293Z,12.20
2019-05-10T09:13:42.496Z,14.15
2019-05-10T09:16:09.890Z,16.05
2019-05-10T09:18:46.286Z,16.35
2019-05-10T09:21:13.600Z,14.25
2019-05-10T09:23:42.596Z,17.52
2019-05-10T09:26:16.227Z,16.17
2019-05-10T09:28:42.153Z,13.60
2019-05-10T09:31:18.916Z,13.93
2019-05-10T09:33:49.191Z,10.65
2019-05-10T09:36:12.527Z,14.37
2019-05-10T09:38:43.379Z,13.45
2019-05-10T09:41:12.046Z,23.02
2019-05-10T09:43:49.186Z,23.90
2019-05-10T09:46:14.287Z,13.25
2019-05-10T09:48:45.070Z,24.63
2019-05-10T09:51:13.874Z,13.18
2019-05-10T09:53:42.713Z,12.58
2019-05-10T09:56:11.339Z,13.35
2019-05-10T09:58:39.570Z,14.18
2019-05-10T10:01:16.840Z,13.95
2019-05-10T10:03:43.099Z,12.68
2019-05-10T10:06:11.370Z,12.98
2019-05-10T10:08:43.374Z,18.98
2019-05-10T10:11:15.559Z,16.57
2019-05-10T10:13:43.802Z,11.68
2019-05-10T10:16:14.670Z,11.80
2019-05-10T10:18:41.334Z,15.47
2019-05-10T10:21:11.029Z,16.43
2019-05-10T10:23:40.302Z,10.67
2019-05-10T10:26:12.831Z,14.53
2019-05-10T10:28:39.844Z,14.50
2019-05-10T10:31:08.919Z,12.53
2019-05-10T10:33:38.054Z,16.43
2019-05-10T10:36:09.102Z,15.08
2019-05-10T10:38:45.012Z,11.50
2019-05-10T10:41:08.239Z,15.73
2019-05-10T10:43:37.203Z,12.23
2019-05-10T10:46:11.944Z,13.30
2019-05-10T10:48:37.133Z,10.78
2019-05-10T10:51:07.906Z,16.55
2019-05-10T10:53:35.919Z,15.50
2019-05-10T10:56:04.263Z,18.70
2019-05-10T10:58:32.709Z,11.20
2019-05-10T11:01:01.440Z,14.67
2019-05-10T11:03:30.934Z,10.77
2019-05-10T11:06:00.887Z,16.40
2019-05-10T11:08:32.844Z,10.90
2019-05-10T11:11:02.282Z,9.53
2019-05-10T11:13:44.206Z,10.40
2019-05-10T11:16:09.865Z,11.83
2019-05-10T11:18:32.230Z,9.67
2019-05-10T11:21:01.951Z,11.37
2019-05-10T11:23:37.363Z,12.87
2019-05-10T11:26:01.429Z,13.80
2019-05-10T11:28:38.656Z,12.93
2019-05-10T11:31:01.320Z,19.90
2019-05-10T11:33:33.367Z,9.80
2019-05-10T11:36:04.111Z,11.20
2019-05-10T11:38:32.442Z,14.77
2019-05-10T11:41:02.035Z,13.13
2019-05-10T11:43:31.421Z,10.23
2019-05-10T11:46:00.122Z,14.33
2019-05-10T11:48:37.169Z,13.47
2019-05-10T11:51:15.387Z,15.60
2019-05-10T11:53:37.747Z,10.40
2019-05-10T11:59:05.159Z,15.38
2019-05-10T12:01:17.634Z,10.28
2019-05-10T12:03:42.420Z,15.93
2019-05-10T12:06:12.223Z,9.28
2019-05-10T12:08:41.753Z,15.03
2019-05-10T12:13:41.871Z,10.85
2019-05-10T12:16:16.164Z,13.95
2019-05-10T12:18:46.390Z,10.67
2019-05-10T12:21:11.560Z,7.67
2019-05-10T12:23:49.978Z,8.85
2019-05-10T12:26:05.895Z,10.55
2019-05-10T12:26:31.160Z,8.05
2019-05-10T12:28:42.163Z,10.63
2019-05-10T12:31:15.070Z,6.97
2019-05-10T12:33:45.082Z,11.83
2019-05-10T12:36:23.532Z,10.38
2019-05-10T12:38:43.375Z,12.20
2019-05-10T12:41:12.134Z,10.78
2019-05-10T12:43:43.649Z,9.73
2019-05-10T12:46:11.656Z,12.18
2019-05-10T12:48:42.472Z,13.13
2019-05-10T12:51:15.691Z,12.35
2019-05-10T12:53:47.748Z,10.18
2019-05-10T12:56:12.879Z,14.73
2019-05-10T12:58:41.528Z,17.32
2019-05-10T13:01:09.787Z,14.15
2019-05-10T13:03:38.695Z,21.20
2019-05-10T13:06:06.979Z,15.43
2019-05-10T13:08:35.800Z,13.53
2019-05-10T13:11:04.529Z,30.92
2019-05-10T13:13:33.162Z,16.73
2019-05-10T13:16:03.426Z,13.53
2019-05-10T13:18:49.842Z,13.20
2019-05-10T13:21:03.351Z,11.68
2019-05-10T13:23:31.933Z,19.50
2019-05-10T13:26:00.442Z,14.78
2019-05-10T13:28:28.779Z,96.32
2019-05-10T13:30:59.788Z,16.20
2019-05-10T13:33:29.371Z,11.93
2019-05-10T13:35:58.677Z,14.53
2019-05-10T13:38:27.758Z,16.23
2019-05-10T13:40:56.597Z,13.43
2019-05-10T13:43:26.910Z,13.38
2019-05-10T13:45:55.820Z,13.98
2019-05-10T13:48:26.499Z,12.85
2019-05-10T13:50:54.541Z,13.90
2019-05-10T13:53:23.313Z,15.72
2019-05-10T13:55:51.678Z,14.15
2019-05-10T13:58:19.998Z,12.88
2019-05-10T14:00:48.702Z,10.10
2019-05-10T14:03:16.955Z,9.80
2019-05-10T14:05:48.773Z,12.15
2019-05-10T14:08:17.282Z,14.38
2019-05-10T14:10:49.247Z,15.88
2019-05-10T14:13:17.024Z,10.25
2019-05-10T14:15:45.880Z,15.28
2019-05-10T14:18:14.450Z,11.78
2019-05-10T14:20:42.801Z,16.67
2019-05-10T14:23:11.354Z,13.72
2019-05-10T14:25:39.613Z,14.07
2019-05-10T14:28:09.664Z,14.10
2019-05-10T14:30:38.612Z,14.23
2019-05-10T14:33:08.775Z,15.15
2019-05-10T14:35:37.375Z,12.93
2019-05-10T14:38:08.475Z,19.85
2019-05-10T14:40:36.049Z,12.13
2019-05-10T14:43:04.572Z,13.40
2019-05-10T14:45:33.541Z,17.95
2019-05-10T14:48:02.072Z,17.65
2019-05-10T14:50:30.987Z,12.85
2019-05-10T14:52:59.800Z,12.07
2019-05-10T14:55:34.665Z,16.80
2019-05-10T14:57:58.314Z,25.92
2019-05-10T15:00:26.750Z,21.80
2019-05-10T15:02:56.787Z,16.30
2019-05-10T15:05:25.570Z,14.65
2019-05-10T15:07:54.377Z,11.65
2019-05-10T15:10:23.116Z,10.85
2019-05-10T15:12:51.490Z,11.47
2019-05-10T15:15:21.028Z,18.27
2019-05-10T15:17:55.213Z,9.65
2019-05-10T15:20:21.240Z,13.43
2019-05-10T15:22:49.574Z,13.32
2019-05-10T15:25:17.831Z,9.88
2019-05-10T15:27:46.626Z,12.30
2019-05-10T15:30:15.748Z,9.60
2019-05-10T15:32:44.667Z,11.80
2019-05-10T15:35:13.507Z,13.17
2019-05-10T15:37:46.161Z,14.53
2019-05-10T15:40:13.197Z,12.33
2019-05-10T15:42:42.118Z,12.70
2019-05-10T15:45:14.137Z,10.00
2019-05-10T15:47:50.548Z,9.43
2019-05-10T15:50:11.467Z,15.40
2019-05-10T15:52:46.533Z,12.13
2019-05-10T15:55:11.040Z,8.00
2019-05-10T15:57:39.229Z,9.93
2019-05-10T16:00:09.489Z,16.50
2019-05-10T16:02:37.701Z,10.50
2019-05-10T16:05:23.411Z,13.90
2019-05-10T16:07:36.949Z,13.73
2019-05-10T16:10:07.202Z,13.07
2019-05-10T16:12:37.892Z,14.90
2019-05-10T16:15:06.681Z,14.33
2019-05-10T16:17:35.078Z,16.43
2019-05-10T16:20:03.865Z,12.03
2019-05-10T16:22:32.436Z,11.03
2019-05-10T16:25:02.817Z,14.07
2019-05-10T16:27:33.972Z,18.13
2019-05-10T16:30:01.343Z,12.47
2019-05-10T16:32:34.424Z,17.57
2019-05-10T16:35:05.833Z,17.67
2019-05-10T16:37:31.993Z,21.13
2019-05-10T16:40:00.941Z,17.17
2019-05-10T16:42:34.547Z,21.50
2019-05-10T16:44:59.977Z,16.00
2019-05-10T16:47:28.911Z,18.70
2019-05-10T16:49:57.530Z,25.97
2019-05-10T16:52:27.962Z,15.20
2019-05-10T16:54:58.098Z,22.83
2019-05-10T16:57:31.920Z,17.10
2019-05-10T17:00:02.082Z,18.53
2019-05-10T17:02:27.338Z,19.63
2019-05-10T17:04:55.765Z,22.77
2019-05-10T17:07:24.534Z,18.90
2019-05-10T17:09:54.664Z,19.77
2019-05-10T17:12:27.640Z,22.73
2019-05-10T17:14:56.246Z,15.60
2019-05-10T17:17:24.499Z,19.07
2019-05-10T17:19:53.201Z,16.60
2019-05-10T17:22:21.931Z,13.87
2019-05-10T17:24:50.714Z,15.47
2019-05-10T17:27:19.206Z,16.47
2019-05-10T17:29:50.074Z,11.93
2019-05-10T17:32:18.546Z,20.53
2019-05-10T17:34:48.521Z,14.07
2019-05-10T17:37:16.913Z,12.43
2019-05-10T17:39:45.790Z,10.40
2019-05-10T17:42:14.386Z,13.53
2019-05-10T17:44:43.661Z,14.70
2019-05-10T17:47:12.094Z,13.47
2019-05-10T17:49:40.369Z,13.97
2019-05-10T17:52:08.722Z,11.90
2019-05-10T17:54:39.239Z,15.43
2019-05-10T17:57:10.549Z,11.70
2019-05-10T17:59:38.842Z,9.47
2019-05-10T18:02:07.607Z,11.00
2019-05-10T18:04:36.207Z,10.27
2019-05-10T18:07:04.718Z,12.43
2019-05-10T18:09:34.139Z,10.70
2019-05-10T18:12:02.613Z,10.70
2019-05-10T18:14:31.595Z,12.90
2019-05-10T18:17:00.286Z,12.00
2019-05-10T18:19:29.335Z,9.73
2019-05-10T18:22:00.814Z,11.67
2019-05-10T18:24:30.245Z,10.53
2019-05-10T18:26:58.920Z,8.27
2019-05-10T18:29:27.341Z,6.73
2019-05-10T18:31:58.250Z,8.53
2019-05-10T18:34:32.825Z,11.13
2019-05-10T18:36:56.501Z,13.97
2019-05-10T18:39:24.989Z,8.70
2019-05-10T18:41:53.956Z,7.58
2019-05-10T18:44:22.958Z,9.17
2019-05-10T18:46:51.246Z,8.93
2019-05-10T18:49:21.681Z,7.03
2019-05-10T18:51:49.861Z,8.80
2019-05-10T18:54:18.306Z,6.40
2019-05-10T18:56:47.247Z,6.60
2019-05-10T18:59:15.575Z,6.53
2019-05-10T19:01:43.777Z,7.93
2019-05-10T19:04:14.576Z,13.07
2019-05-10T19:06:44.023Z,14.33
2019-05-10T19:09:13.659Z,11.63
2019-05-10T19:11:42.214Z,14.67
2019-05-10T19:14:10.638Z,11.17
2019-05-10T19:16:39.382Z,10.83
2019-05-10T19:19:07.850Z,12.73
2019-05-10T19:21:37.930Z,9.63
2019-05-10T19:24:11.152Z,11.60
2019-05-10T19:26:40.489Z,8.57
2019-05-10T19:29:09.701Z,11.40
2019-05-10T19:31:40.126Z,7.20
2019-05-10T19:34:09.263Z,11.40
2019-05-10T19:36:41.047Z,10.05
2019-05-10T19:39:09.300Z,11.60
2019-05-10T19:41:38.156Z,12.43
2019-05-10T19:44:07.286Z,12.27
2019-05-10T19:46:39.705Z,9.83
2019-05-10T19:49:13.368Z,11.10
2019-05-10T19:51:42.128Z,9.40
2019-05-10T19:54:13.711Z,10.53
2019-05-10T19:56:41.021Z,10.20
2019-05-10T19:59:11.895Z,11.03
2019-05-10T20:01:44.776Z,6.40
2019-05-10T20:04:11.597Z,13.20
2019-05-10T20:06:40.980Z,9.25
2019-05-10T20:09:10.957Z,10.63
2019-05-10T20:11:39.774Z,9.37
2019-05-10T20:14:08.757Z,9.20
2019-05-10T20:16:51.387Z,8.27
2019-05-10T20:19:09.339Z,9.90
2019-05-10T20:21:37.750Z,11.83
2019-05-10T20:24:08.206Z,7.77
2019-05-10T20:26:38.088Z,7.97
2019-05-10T20:29:07.298Z,8.87
2019-05-10T20:31:36.751Z,10.87
2019-05-10T20:34:05.658Z,7.63
2019-05-10T20:36:36.975Z,8.10
2019-05-10T20:39:06.398Z,8.67
2019-05-10T20:41:34.538Z,8.43
2019-05-10T20:44:03.705Z,11.50
2019-05-10T20:46:32.146Z,9.40
2019-05-10T20:49:00.300Z,11.30
2019-05-10T20:51:29.205Z,8.50
2019-05-10T20:53:57.366Z,9.47
2019-05-10T20:56:25.831Z,7.53
2019-05-10T20:58:54.410Z,10.90
2019-05-10T21:01:22.972Z,8.60
2019-05-10T21:03:51.243Z,9.03
2019-05-10T21:06:19.722Z,6.73
2019-05-10T21:08:48.553Z,7.77
2019-05-10T21:11:17.083Z,6.80
2019-05-10T21:13:45.490Z,9.67
2019-05-10T21:16:13.966Z,9.53
2019-05-10T21:18:42.714Z,10.93
2019-05-10T21:21:11.017Z,7.73
2019-05-10T21:23:41.338Z,11.08
2019-05-10T21:26:09.910Z,8.70
2019-05-10T21:28:38.599Z,6.33
2019-05-10T21:31:07.877Z,4.37
2019-05-10T21:33:36.309Z,7.60
2019-05-10T21:36:04.698Z,8.27
2019-05-10T21:38:33.592Z,5.90
2019-05-10T21:41:02.178Z,7.00
2019-05-10T21:43:30.302Z,8.73
2019-05-10T21:45:58.873Z,4.93
2019-05-10T21:48:27.587Z,3.50
2019-05-10T21:50:56.081Z,7.30
2019-05-10T21:53:24.597Z,8.00
2019-05-10T21:55:52.889Z,6.50
2019-05-10T21:58:23.804Z,6.27
2019-05-10T22:00:52.635Z,8.27
2019-05-10T22:03:23.522Z,5.97
2019-05-10T22:05:51.865Z,9.70
2019-05-10T22:08:20.041Z,6.00
2019-05-10T22:10:48.225Z,8.53
2019-05-10T22:13:16.421Z,5.93
2019-05-10T22:15:45.842Z,10.43
2019-05-10T22:18:14.079Z,7.23
2019-05-10T22:20:43.677Z,8.23
2019-05-10T22:23:12.026Z,8.87
2019-05-10T22:25:40.450Z,10.27
2019-05-10T22:28:08.835Z,9.83
2019-05-10T22:30:37.055Z,8.27
2019-05-10T22:33:11.874Z,9.43
2019-05-10T22:35:40.004Z,11.23
2019-05-10T22:38:08.336Z,11.80
2019-05-10T22:40:36.458Z,10.50
2019-05-10T22:43:04.729Z,13.23
2019-05-10T22:45:32.851Z,15.67
2019-05-10T22:48:01.118Z,8.13
2019-05-10T22:50:29.241Z,9.93
2019-05-10T22:52:57.877Z,11.07
2019-05-10T22:55:26.225Z,16.27
2019-05-10T22:57:54.458Z,13.43
2019-05-10T23:00:23.229Z,10.90
2019-05-10T23:02:54.892Z,17.63
2019-05-10T23:05:23.739Z,8.93
2019-05-10T23:07:52.153Z,10.60
2019-05-10T23:10:20.579Z,10.63
2019-05-10T23:12:49.182Z,8.73
2019-05-10T23:15:19.814Z,9.13
2019-05-10T23:17:48.442Z,6.40
2019-05-10T23:20:17.006Z,9.67
2019-05-10T23:22:48.926Z,9.03
2019-05-10T23:25:17.169Z,9.20
2019-05-10T23:27:45.830Z,6.20
2019-05-10T23:30:14.030Z,7.40
2019-05-10T23:32:42.238Z,12.30
2019-05-10T23:35:10.562Z,8.07
2019-05-10T23:37:38.765Z,9.47
2019-05-10T23:40:07.371Z,11.43
2019-05-10T23:42:35.538Z,9.60
2019-05-10T23:45:04.143Z,10.30
2019-05-10T23:47:33.198Z,11.53
2019-05-10T23:50:01.702Z,11.93
2019-05-10T23:52:29.789Z,5.97
2019-05-10T23:54:58.039Z,7.47
2019-05-10T23:57:26.649Z,10.50
2019-05-10T23:59:55.899Z,9.77
